sensor_id;sensor_type;location;lat;lon;timestamp;pressure;altitude;pressure_sealevel;temperature;humidity
53041;BME280;39326;42.650;23.248;2022-07-01T00:00:24;92651.63;;;19.55;63.32
53041;BME280;39326;42.650;23.248;2022-07-01T00:02:49;92658.69;;;19.53;63.65
53041;BME280;39326;42.650;23.248;2022-07-01T00:05:15;92662.91;;;19.54;63.87
53041;BME280;39326;42.650;23.248;2022-07-01T00:07:40;92668.53;;;19.46;63.24
53041;BME280;39326;42.650;23.248;2022-07-01T00:10:06;92668.31;;;19.41;62.90
53041;BME280;39326;42.650;23.248;2022-07-01T00:12:32;92668.41;;;19.37;62.86
53041;BME280;39326;42.650;23.248;2022-07-01T00:14:57;92670.06;;;19.35;62.65
53041;BME280;39326;42.650;23.248;2022-07-01T00:17:23;92665.72;;;19.37;62.69
53041;BME280;39326;42.650;23.248;2022-07-01T00:19:48;92666.59;;;19.34;62.88
53041;BME280;39326;42.650;23.248;2022-07-01T00:22:15;92667.56;;;19.28;62.43
53041;BME280;39326;42.650;23.248;2022-07-01T00:24:40;92667.13;;;19.29;62.86
53041;BME280;39326;42.650;23.248;2022-07-01T00:27:06;92683.34;;;19.29;63.21
53041;BME280;39326;42.650;23.248;2022-07-01T00:29:31;92684.56;;;19.28;63.31
53041;BME280;39326;42.650;23.248;2022-07-01T00:31:59;92681.09;;;19.28;62.98
53041;BME280;39326;42.650;23.248;2022-07-01T00:34:24;92676.88;;;19.27;63.12
53041;BME280;39326;42.650;23.248;2022-07-01T00:36:49;92681.19;;;19.24;63.07
53041;BME280;39326;42.650;23.248;2022-07-01T00:39:15;92678.72;;;19.17;63.24
53041;BME280;39326;42.650;23.248;2022-07-01T00:41:41;92682.41;;;19.10;63.83
53041;BME280;39326;42.650;23.248;2022-07-01T00:44:15;92677.22;;;19.03;64.26
53041;BME280;39326;42.650;23.248;2022-07-01T00:46:41;92670.63;;;19.04;63.21
53041;BME280;39326;42.650;23.248;2022-07-01T00:49:06;92670.75;;;19.01;63.54
53041;BME280;39326;42.650;23.248;2022-07-01T00:51:32;92668.88;;;18.98;64.19
53041;BME280;39326;42.650;23.248;2022-07-01T00:53:58;92667.81;;;18.95;63.43
53041;BME280;39326;42.650;23.248;2022-07-01T00:56:24;92667.59;;;18.89;63.82
53041;BME280;39326;42.650;23.248;2022-07-01T00:58:50;92669.19;;;18.87;64.17
53041;BME280;39326;42.650;23.248;2022-07-01T01:01:15;92685.00;;;18.88;63.89
53041;BME280;39326;42.650;23.248;2022-07-01T01:03:41;92681.31;;;18.82;63.72
53041;BME280;39326;42.650;23.248;2022-07-01T01:06:08;92683.06;;;18.76;63.46
53041;BME280;39326;42.650;23.248;2022-07-01T01:08:34;92692.00;;;18.73;63.97
53041;BME280;39326;42.650;23.248;2022-07-01T01:11:00;92693.84;;;18.76;64.30
53041;BME280;39326;42.650;23.248;2022-07-01T01:13:26;92685.53;;;18.71;64.04
53041;BME280;39326;42.650;23.248;2022-07-01T01:15:51;92682.81;;;18.71;63.96
53041;BME280;39326;42.650;23.248;2022-07-01T01:18:17;92681.63;;;18.72;64.53
53041;BME280;39326;42.650;23.248;2022-07-01T01:20:42;92679.97;;;18.61;64.81
53041;BME280;39326;42.650;23.248;2022-07-01T01:23:07;92678.56;;;18.57;64.92
53041;BME280;39326;42.650;23.248;2022-07-01T01:25:33;92678.56;;;18.57;64.65
53041;BME280;39326;42.650;23.248;2022-07-01T01:28:02;92685.72;;;18.63;64.21
53041;BME280;39326;42.650;23.248;2022-07-01T01:30:28;92679.97;;;18.61;64.28
53041;BME280;39326;42.650;23.248;2022-07-01T01:32:53;92674.75;;;18.54;64.62
53041;BME280;39326;42.650;23.248;2022-07-01T01:35:20;92676.03;;;18.50;64.34
53041;BME280;39326;42.650;23.248;2022-07-01T01:37:46;92679.94;;;18.49;64.86
53041;BME280;39326;42.650;23.248;2022-07-01T01:40:12;92669.56;;;18.47;64.83
53041;BME280;39326;42.650;23.248;2022-07-01T01:42:42;92672.19;;;18.51;64.81
53041;BME280;39326;42.650;23.248;2022-07-01T01:45:08;92676.03;;;18.50;64.90
53041;BME280;39326;42.650;23.248;2022-07-01T01:47:34;92676.16;;;18.46;65.50
53041;BME280;39326;42.650;23.248;2022-07-01T01:49:59;92680.06;;;18.45;65.47
53041;BME280;39326;42.650;23.248;2022-07-01T01:52:25;92690.19;;;18.41;65.70
53041;BME280;39326;42.650;23.248;2022-07-01T01:54:50;92691.06;;;18.38;65.60
53041;BME280;39326;42.650;23.248;2022-07-01T01:57:16;92695.03;;;18.33;65.92
53041;BME280;39326;42.650;23.248;2022-07-01T01:59:41;92695.47;;;18.32;65.79
53041;BME280;39326;42.650;23.248;2022-07-01T02:02:07;92697.50;;;18.28;65.86
53041;BME280;39326;42.650;23.248;2022-07-01T02:04:33;92692.31;;;18.21;66.45
53041;BME280;39326;42.650;23.248;2022-07-01T02:06:58;92695.22;;;18.26;65.95
53041;BME280;39326;42.650;23.248;2022-07-01T02:09:25;92688.72;;;18.24;65.77
53041;BME280;39326;42.650;23.248;2022-07-01T02:11:51;92676.38;;;18.10;66.21
53041;BME280;39326;42.650;23.248;2022-07-01T02:14:17;92692.31;;;18.21;65.77
53041;BME280;39326;42.650;23.248;2022-07-01T02:16:43;92697.34;;;18.19;65.98
53041;BME280;39326;42.650;23.248;2022-07-01T02:19:08;92695.44;;;18.19;65.54
53041;BME280;39326;42.650;23.248;2022-07-01T02:21:34;92688.31;;;18.25;65.78
53041;BME280;39326;42.650;23.248;2022-07-01T02:23:59;92698.13;;;18.19;66.04
53041;BME280;39326;42.650;23.248;2022-07-01T02:26:25;92703.28;;;18.13;66.32
53041;BME280;39326;42.650;23.248;2022-07-01T02:28:50;92703.69;;;18.12;66.51
53041;BME280;39326;42.650;23.248;2022-07-01T02:31:15;92707.94;;;18.13;66.28
53041;BME280;39326;42.650;23.248;2022-07-01T02:33:41;92712.66;;;18.09;66.85
53041;BME280;39326;42.650;23.248;2022-07-01T02:36:06;92711.59;;;18.06;66.76
53041;BME280;39326;42.650;23.248;2022-07-01T02:38:32;92711.66;;;18.03;66.51
53041;BME280;39326;42.650;23.248;2022-07-01T02:40:57;92714.78;;;18.01;66.92
53041;BME280;39326;42.650;23.248;2022-07-01T02:43:24;92720.53;;;18.03;66.80
53041;BME280;39326;42.650;23.248;2022-07-01T02:45:49;92727.19;;;17.99;67.04
53041;BME280;39326;42.650;23.248;2022-07-01T02:48:14;92721.47;;;17.97;67.00
53041;BME280;39326;42.650;23.248;2022-07-01T02:50:40;92718.94;;;17.90;66.64
53041;BME280;39326;42.650;23.248;2022-07-01T02:53:06;92723.84;;;17.95;66.57
53041;BME280;39326;42.650;23.248;2022-07-01T02:55:31;92728.03;;;17.96;66.75
53041;BME280;39326;42.650;23.248;2022-07-01T02:57:57;92723.84;;;17.95;66.72
53041;BME280;39326;42.650;23.248;2022-07-01T03:00:23;92723.41;;;17.96;66.90
53041;BME280;39326;42.650;23.248;2022-07-01T03:02:49;92726.84;;;17.97;66.73
53041;BME280;39326;42.650;23.248;2022-07-01T03:05:15;92730.06;;;17.92;67.08
53041;BME280;39326;42.650;23.248;2022-07-01T03:07:41;92734.28;;;17.93;67.47
53041;BME280;39326;42.650;23.248;2022-07-01T03:10:08;92733.63;;;17.89;67.67
53041;BME280;39326;42.650;23.248;2022-07-01T03:12:34;92724.84;;;17.84;68.10
53041;BME280;39326;42.650;23.248;2022-07-01T03:15:12;92734.38;;;17.89;67.87
53041;BME280;39326;42.650;23.248;2022-07-01T03:17:45;92748.53;;;17.93;68.03
53041;BME280;39326;42.650;23.248;2022-07-01T03:20:13;92745.81;;;17.93;67.97
53041;BME280;39326;42.650;23.248;2022-07-01T03:22:40;92741.63;;;17.92;68.05
53041;BME280;39326;42.650;23.248;2022-07-01T03:25:06;92748.88;;;17.95;67.46
53041;BME280;39326;42.650;23.248;2022-07-01T03:27:32;92743.72;;;18.01;67.96
53041;BME280;39326;42.650;23.248;2022-07-01T03:29:58;92742.88;;;18.04;68.11
53041;BME280;39326;42.650;23.248;2022-07-01T03:32:24;92738.03;;;18.11;68.11
53041;BME280;39326;42.650;23.248;2022-07-01T03:34:51;92741.41;;;18.16;68.37
53041;BME280;39326;42.650;23.248;2022-07-01T03:37:19;92742.09;;;18.20;68.32
53041;BME280;39326;42.650;23.248;2022-07-01T03:39:45;92747.28;;;18.27;68.13
53041;BME280;39326;42.650;23.248;2022-07-01T03:42:11;92745.34;;;18.27;68.59
53041;BME280;39326;42.650;23.248;2022-07-01T03:44:37;92757.16;;;18.33;68.67
53041;BME280;39326;42.650;23.248;2022-07-01T03:47:03;92757.78;;;18.37;68.76
53041;BME280;39326;42.650;23.248;2022-07-01T03:49:34;92756.53;;;18.42;68.93
53041;BME280;39326;42.650;23.248;2022-07-01T03:52:01;92748.34;;;18.46;68.56
53041;BME280;39326;42.650;23.248;2022-07-01T03:54:26;92748.88;;;18.53;67.57
53041;BME280;39326;42.650;23.248;2022-07-01T03:59:31;92744.09;;;18.74;67.12
53041;BME280;39326;42.650;23.248;2022-07-01T04:01:57;92746.19;;;18.82;67.95
53041;BME280;39326;42.650;23.248;2022-07-01T04:04:24;92745.97;;;18.89;67.75
53041;BME280;39326;42.650;23.248;2022-07-01T04:06:50;92750.84;;;18.94;67.77
53041;BME280;39326;42.650;23.248;2022-07-01T04:09:17;92760.34;;;18.99;67.74
53041;BME280;39326;42.650;23.248;2022-07-01T04:11:45;92749.22;;;18.97;67.53
53041;BME280;39326;42.650;23.248;2022-07-01T04:14:10;92757.44;;;19.06;66.63
53041;BME280;39326;42.650;23.248;2022-07-01T04:16:36;92757.78;;;19.08;66.21
53041;BME280;39326;42.650;23.248;2022-07-01T04:19:03;92757.91;;;19.17;66.08
53041;BME280;39326;42.650;23.248;2022-07-01T04:21:28;92762.69;;;19.26;65.60
53041;BME280;39326;42.650;23.248;2022-07-01T04:24:13;92756.47;;;19.26;65.71
53041;BME280;39326;42.650;23.248;2022-07-01T04:26:42;92758.25;;;19.32;65.65
53041;BME280;39326;42.650;23.248;2022-07-01T04:29:08;92764.41;;;19.33;65.75
53041;BME280;39326;42.650;23.248;2022-07-01T04:31:37;92775.00;;;19.40;65.46
53041;BME280;39326;42.650;23.248;2022-07-01T04:34:03;92769.47;;;19.43;65.10
53041;BME280;39326;42.650;23.248;2022-07-01T04:36:29;92776.53;;;19.54;64.65
53041;BME280;39326;42.650;23.248;2022-07-01T04:38:54;92770.81;;;19.64;63.80
53041;BME280;39326;42.650;23.248;2022-07-01T04:41:20;92770.13;;;19.73;63.99
53041;BME280;39326;42.650;23.248;2022-07-01T04:44:04;92762.31;;;19.75;65.26
53041;BME280;39326;42.650;23.248;2022-07-01T04:46:30;92772.50;;;19.84;65.36
53041;BME280;39326;42.650;23.248;2022-07-01T04:48:55;92776.25;;;19.99;65.82
53041;BME280;39326;42.650;23.248;2022-07-01T04:51:21;92777.66;;;20.04;65.43
53041;BME280;39326;42.650;23.248;2022-07-01T04:53:47;92780.44;;;20.13;64.98
53041;BME280;39326;42.650;23.248;2022-07-01T04:56:13;92767.09;;;20.18;65.40
53041;BME280;39326;42.650;23.248;2022-07-01T04:58:39;92775.00;;;20.25;64.90
53041;BME280;39326;42.650;23.248;2022-07-01T05:01:04;92775.56;;;20.33;64.86
53041;BME280;39326;42.650;23.248;2022-07-01T05:03:30;92770.97;;;20.43;64.57
53041;BME280;39326;42.650;23.248;2022-07-01T05:05:55;92766.19;;;20.47;64.75
53041;BME280;39326;42.650;23.248;2022-07-01T05:08:21;92766.13;;;20.60;64.67
53041;BME280;39326;42.650;23.248;2022-07-01T05:10:46;92764.28;;;20.57;64.58
53041;BME280;39326;42.650;23.248;2022-07-01T05:13:12;92766.50;;;20.71;64.52
53041;BME280;39326;42.650;23.248;2022-07-01T05:15:37;92767.94;;;20.85;64.30
53041;BME280;39326;42.650;23.248;2022-07-01T05:18:03;92783.06;;;20.95;64.04
53041;BME280;39326;42.650;23.248;2022-07-01T05:20:47;92775.75;;;21.04;63.72
53041;BME280;39326;42.650;23.248;2022-07-01T05:23:31;92780.47;;;21.13;62.67
53041;BME280;39326;42.650;23.248;2022-07-01T05:25:56;92777.19;;;21.18;62.25
53041;BME280;39326;42.650;23.248;2022-07-01T05:28:21;92784.75;;;21.23;62.02
53041;BME280;39326;42.650;23.248;2022-07-01T05:30:47;92784.75;;;21.23;61.86
53041;BME280;39326;42.650;23.248;2022-07-01T05:33:12;92781.78;;;21.30;62.07
53041;BME280;39326;42.650;23.248;2022-07-01T05:35:38;92783.78;;;21.39;62.58
53041;BME280;39326;42.650;23.248;2022-07-01T05:38:03;92778.03;;;21.37;61.62
53041;BME280;39326;42.650;23.248;2022-07-01T05:40:29;92785.78;;;21.48;61.29
53041;BME280;39326;42.650;23.248;2022-07-01T05:42:54;92783.03;;;21.39;61.53
53041;BME280;39326;42.650;23.248;2022-07-01T05:45:20;92779.81;;;21.31;61.98
53041;BME280;39326;42.650;23.248;2022-07-01T05:47:46;92772.25;;;21.57;61.26
53041;BME280;39326;42.650;23.248;2022-07-01T05:50:11;92772.13;;;21.70;60.76
53041;BME280;39326;42.650;23.248;2022-07-01T05:52:37;92780.81;;;21.86;60.75
53041;BME280;39326;42.650;23.248;2022-07-01T05:55:02;92778.44;;;21.98;60.03
53041;BME280;39326;42.650;23.248;2022-07-01T05:57:28;92779.00;;;21.83;60.42
53041;BME280;39326;42.650;23.248;2022-07-01T05:59:53;92774.94;;;21.88;60.70
53041;BME280;39326;42.650;23.248;2022-07-01T06:02:19;92775.38;;;21.96;60.97
53041;BME280;39326;42.650;23.248;2022-07-01T06:04:44;92777.84;;;22.12;60.60
53041;BME280;39326;42.650;23.248;2022-07-01T06:07:10;92783.75;;;22.20;59.67
53041;BME280;39326;42.650;23.248;2022-07-01T06:09:38;92783.75;;;22.38;59.54
53041;BME280;39326;42.650;23.248;2022-07-01T06:12:05;92786.81;;;22.40;58.78
53041;BME280;39326;42.650;23.248;2022-07-01T06:14:31;92781.19;;;22.43;58.80
53041;BME280;39326;42.650;23.248;2022-07-01T06:16:56;92790.13;;;22.53;58.81
53041;BME280;39326;42.650;23.248;2022-07-01T06:19:22;92790.75;;;22.57;58.16
53041;BME280;39326;42.650;23.248;2022-07-01T06:21:47;92791.34;;;22.71;57.82
53041;BME280;39326;42.650;23.248;2022-07-01T06:24:13;92784.41;;;22.60;58.59
53041;BME280;39326;42.650;23.248;2022-07-01T06:26:39;92795.28;;;22.60;58.93
53041;BME280;39326;42.650;23.248;2022-07-01T06:29:04;92793.91;;;22.47;59.35
53041;BME280;39326;42.650;23.248;2022-07-01T06:31:30;92794.81;;;22.71;59.45
53041;BME280;39326;42.650;23.248;2022-07-01T06:33:58;92800.09;;;22.84;58.61
53041;BME280;39326;42.650;23.248;2022-07-01T06:36:23;92794.19;;;23.04;58.27
53041;BME280;39326;42.650;23.248;2022-07-01T06:38:49;92789.19;;;23.11;57.95
53041;BME280;39326;42.650;23.248;2022-07-01T06:41:14;92789.00;;;23.15;56.56
53041;BME280;39326;42.650;23.248;2022-07-01T06:43:53;92783.75;;;23.11;57.53
53041;BME280;39326;42.650;23.248;2022-07-01T06:46:19;92782.22;;;23.19;57.26
53041;BME280;39326;42.650;23.248;2022-07-01T06:48:45;92790.81;;;23.36;56.42
53041;BME280;39326;42.650;23.248;2022-07-01T06:51:11;92789.56;;;23.46;56.18
53041;BME280;39326;42.650;23.248;2022-07-01T06:53:37;92789.13;;;23.39;55.87
53041;BME280;39326;42.650;23.248;2022-07-01T06:56:03;92790.78;;;23.45;57.25
53041;BME280;39326;42.650;23.248;2022-07-01T06:58:28;92784.66;;;23.69;55.86
53041;BME280;39326;42.650;23.248;2022-07-01T07:00:54;92786.69;;;23.83;55.87
53041;BME280;39326;42.650;23.248;2022-07-01T07:03:19;92788.31;;;23.57;56.98
53041;BME280;39326;42.650;23.248;2022-07-01T07:05:45;92783.47;;;23.61;55.67
53041;BME280;39326;42.650;23.248;2022-07-01T07:08:11;92785.78;;;23.86;55.68
53041;BME280;39326;42.650;23.248;2022-07-01T07:10:36;92794.34;;;24.03;55.44
53041;BME280;39326;42.650;23.248;2022-07-01T07:13:02;92799.56;;;24.16;55.18
53041;BME280;39326;42.650;23.248;2022-07-01T07:15:28;92797.19;;;24.09;55.88
53041;BME280;39326;42.650;23.248;2022-07-01T07:17:53;92795.34;;;24.39;54.23
53041;BME280;39326;42.650;23.248;2022-07-01T07:20:26;92792.34;;;24.37;54.27
53041;BME280;39326;42.650;23.248;2022-07-01T07:22:52;92798.56;;;24.52;54.40
53041;BME280;39326;42.650;23.248;2022-07-01T07:25:17;92789.00;;;24.56;55.04
53041;BME280;39326;42.650;23.248;2022-07-01T07:27:43;92802.59;;;24.66;55.06
53041;BME280;39326;42.650;23.248;2022-07-01T07:30:14;92804.63;;;24.95;54.55
53041;BME280;39326;42.650;23.248;2022-07-01T07:32:39;92798.44;;;24.94;54.36
53041;BME280;39326;42.650;23.248;2022-07-01T07:35:06;92796.94;;;25.08;53.85
53041;BME280;39326;42.650;23.248;2022-07-01T07:37:34;92805.97;;;24.99;52.49
53041;BME280;39326;42.650;23.248;2022-07-01T07:40:00;92799.22;;;24.71;52.35
53041;BME280;39326;42.650;23.248;2022-07-01T07:42:26;92800.56;;;24.75;52.35
53041;BME280;39326;42.650;23.248;2022-07-01T07:44:52;92800.19;;;24.82;53.62
53041;BME280;39326;42.650;23.248;2022-07-01T07:47:18;92799.88;;;25.19;52.10
53041;BME280;39326;42.650;23.248;2022-07-01T07:49:44;92797.53;;;25.27;50.93
53041;BME280;39326;42.650;23.248;2022-07-01T07:52:09;92800.03;;;25.16;51.80
53041;BME280;39326;42.650;23.248;2022-07-01T07:54:34;92796.59;;;25.30;52.74
53041;BME280;39326;42.650;23.248;2022-07-01T07:57:00;92792.16;;;25.62;50.71
53041;BME280;39326;42.650;23.248;2022-07-01T07:59:25;92800.34;;;25.62;51.17
53041;BME280;39326;42.650;23.248;2022-07-01T08:01:51;92802.31;;;25.76;51.46
53041;BME280;39326;42.650;23.248;2022-07-01T08:04:16;92796.44;;;25.98;51.70
53041;BME280;39326;42.650;23.248;2022-07-01T08:06:42;92795.03;;;25.88;49.54
53041;BME280;39326;42.650;23.248;2022-07-01T08:09:07;92797.19;;;25.84;51.24
53041;BME280;39326;42.650;23.248;2022-07-01T08:11:33;92794.00;;;26.00;49.99
53041;BME280;39326;42.650;23.248;2022-07-01T08:13:58;92789.38;;;26.27;50.89
53041;BME280;39326;42.650;23.248;2022-07-01T08:16:24;92792.69;;;26.16;49.78
53041;BME280;39326;42.650;23.248;2022-07-01T08:18:50;92788.28;;;26.19;50.70
53041;BME280;39326;42.650;23.248;2022-07-01T08:21:15;92776.66;;;26.44;50.74
53041;BME280;39326;42.650;23.248;2022-07-01T08:23:41;92782.31;;;26.55;51.06
53041;BME280;39326;42.650;23.248;2022-07-01T08:26:06;92776.19;;;26.86;50.28
53041;BME280;39326;42.650;23.248;2022-07-01T08:28:32;92779.22;;;26.68;47.58
53041;BME280;39326;42.650;23.248;2022-07-01T08:30:57;92775.38;;;26.80;48.80
53041;BME280;39326;42.650;23.248;2022-07-01T08:33:23;92776.28;;;26.98;47.38
53041;BME280;39326;42.650;23.248;2022-07-01T08:35:48;92773.13;;;27.05;47.62
53041;BME280;39326;42.650;23.248;2022-07-01T08:38:14;92773.00;;;27.14;47.88
53041;BME280;39326;42.650;23.248;2022-07-01T08:40:40;92773.13;;;27.05;47.13
53041;BME280;39326;42.650;23.248;2022-07-01T08:43:06;92776.53;;;27.20;46.49
53041;BME280;39326;42.650;23.248;2022-07-01T08:45:34;92772.41;;;27.10;45.91
53041;BME280;39326;42.650;23.248;2022-07-01T08:48:01;92769.41;;;27.08;45.80
53041;BME280;39326;42.650;23.248;2022-07-01T08:50:33;92774.28;;;27.18;47.03
53041;BME280;39326;42.650;23.248;2022-07-01T08:52:59;92774.53;;;27.46;46.90
53041;BME280;39326;42.650;23.248;2022-07-01T08:55:25;92773.19;;;27.68;45.64
53041;BME280;39326;42.650;23.248;2022-07-01T08:57:51;92777.16;;;27.67;45.48
53041;BME280;39326;42.650;23.248;2022-07-01T09:00:17;92781.34;;;27.88;44.53
53041;BME280;39326;42.650;23.248;2022-07-01T09:03:00;92780.56;;;27.82;47.00
53041;BME280;39326;42.650;23.248;2022-07-01T09:05:27;92780.25;;;27.74;45.31
53041;BME280;39326;42.650;23.248;2022-07-01T09:08:03;92779.16;;;27.98;45.96
53041;BME280;39326;42.650;23.248;2022-07-01T09:10:30;92778.03;;;28.16;45.50
53041;BME280;39326;42.650;23.248;2022-07-01T09:13:04;92778.50;;;28.14;44.12
53041;BME280;39326;42.650;23.248;2022-07-01T09:15:31;92783.97;;;28.09;45.30
53041;BME280;39326;42.650;23.248;2022-07-01T09:20:34;92777.25;;;28.58;43.64
53041;BME280;39326;42.650;23.248;2022-07-01T09:23:09;92780.84;;;28.87;44.33
53041;BME280;39326;42.650;23.248;2022-07-01T09:25:43;92775.56;;;28.72;42.30
53041;BME280;39326;42.650;23.248;2022-07-01T09:28:16;92780.06;;;28.75;41.93
53041;BME280;39326;42.650;23.248;2022-07-01T09:30:44;92783.91;;;29.00;41.88
53041;BME280;39326;42.650;23.248;2022-07-01T09:33:14;92778.19;;;29.15;41.76
53041;BME280;39326;42.650;23.248;2022-07-01T09:35:41;92779.72;;;29.27;40.71
53041;BME280;39326;42.650;23.248;2022-07-01T09:38:12;92778.50;;;29.56;41.02
53041;BME280;39326;42.650;23.248;2022-07-01T09:40:58;92779.53;;;29.70;39.60
53041;BME280;39326;42.650;23.248;2022-07-01T09:43:26;92765.25;;;30.05;37.77
53041;BME280;39326;42.650;23.248;2022-07-01T09:46:00;92769.69;;;30.30;36.51
53041;BME280;39326;42.650;23.248;2022-07-01T09:48:42;92756.25;;;29.87;37.10
53041;BME280;39326;42.650;23.248;2022-07-01T09:51:09;92770.25;;;29.84;39.47
53041;BME280;39326;42.650;23.248;2022-07-01T09:53:35;92766.47;;;29.36;40.04
53041;BME280;39326;42.650;23.248;2022-07-01T09:56:01;92757.97;;;29.29;39.16
53041;BME280;39326;42.650;23.248;2022-07-01T09:58:26;92753.75;;;29.61;38.50
53041;BME280;39326;42.650;23.248;2022-07-01T10:00:53;92760.03;;;30.01;38.63
53041;BME280;39326;42.650;23.248;2022-07-01T10:03:20;92762.16;;;30.36;37.29
53041;BME280;39326;42.650;23.248;2022-07-01T10:05:53;92755.13;;;30.52;39.12
53041;BME280;39326;42.650;23.248;2022-07-01T10:13:47;92751.63;;;30.46;35.88
53041;BME280;39326;42.650;23.248;2022-07-01T10:16:13;92746.88;;;30.58;36.14
53041;BME280;39326;42.650;23.248;2022-07-01T10:18:40;92755.88;;;30.58;35.66
53041;BME280;39326;42.650;23.248;2022-07-01T10:21:06;92742.53;;;30.74;35.33
53041;BME280;39326;42.650;23.248;2022-07-01T10:23:40;92740.28;;;30.72;35.24
53041;BME280;39326;42.650;23.248;2022-07-01T10:26:06;92735.53;;;30.67;36.05
53041;BME280;39326;42.650;23.248;2022-07-01T10:31:17;92734.88;;;31.08;36.26
53041;BME280;39326;42.650;23.248;2022-07-01T10:33:59;92741.09;;;31.14;33.82
53041;BME280;39326;42.650;23.248;2022-07-01T10:36:28;92738.38;;;31.08;33.85
53041;BME280;39326;42.650;23.248;2022-07-01T10:41:38;92736.31;;;30.62;31.99
53041;BME280;39326;42.650;23.248;2022-07-01T10:44:09;92725.38;;;30.45;31.48
53041;BME280;39326;42.650;23.248;2022-07-01T10:49:20;92716.28;;;30.61;29.96
53041;BME280;39326;42.650;23.248;2022-07-01T10:54:13;92699.91;;;31.27;29.76
53041;BME280;39326;42.650;23.248;2022-07-01T10:57:19;92719.97;;;31.22;29.51
53041;BME280;39326;42.650;23.248;2022-07-01T11:02:23;92715.13;;;31.34;27.55
53041;BME280;39326;42.650;23.248;2022-07-01T11:04:50;92721.78;;;31.14;27.59
53041;BME280;39326;42.650;23.248;2022-07-01T11:07:16;92720.69;;;31.28;29.03
53041;BME280;39326;42.650;23.248;2022-07-01T11:09:42;92720.50;;;31.51;29.39
53041;BME280;39326;42.650;23.248;2022-07-01T11:12:08;92716.06;;;31.42;28.87
53041;BME280;39326;42.650;23.248;2022-07-01T11:14:38;92711.06;;;31.40;28.72
53041;BME280;39326;42.650;23.248;2022-07-01T11:17:05;92710.16;;;31.57;28.24
53041;BME280;39326;42.650;23.248;2022-07-01T11:19:31;92710.97;;;31.52;28.42
53041;BME280;39326;42.650;23.248;2022-07-01T11:21:57;92692.59;;;31.90;27.33
53041;BME280;39326;42.650;23.248;2022-07-01T11:24:23;92702.41;;;31.85;27.32
53041;BME280;39326;42.650;23.248;2022-07-01T11:26:49;92708.38;;;31.65;27.42
53041;BME280;39326;42.650;23.248;2022-07-01T11:29:24;92706.13;;;31.58;25.05
53041;BME280;39326;42.650;23.248;2022-07-01T11:31:50;92706.88;;;31.64;26.24
53041;BME280;39326;42.650;23.248;2022-07-01T11:34:16;92702.00;;;32.00;26.59
53041;BME280;39326;42.650;23.248;2022-07-01T11:36:44;92703.44;;;32.07;26.65
53041;BME280;39326;42.650;23.248;2022-07-01T11:39:28;92701.59;;;32.39;26.16
53041;BME280;39326;42.650;23.248;2022-07-01T11:42:00;92694.53;;;31.95;24.12
53041;BME280;39326;42.650;23.248;2022-07-01T11:44:42;92701.69;;;32.34;25.61
53041;BME280;39326;42.650;23.248;2022-07-01T11:47:10;92696.03;;;32.20;26.69
53041;BME280;39326;42.650;23.248;2022-07-01T11:49:46;92692.97;;;31.99;26.93
53041;BME280;39326;42.650;23.248;2022-07-01T11:52:13;92691.22;;;31.78;27.66
53041;BME280;39326;42.650;23.248;2022-07-01T11:54:40;92685.59;;;32.08;29.00
53041;BME280;39326;42.650;23.248;2022-07-01T11:59:34;92673.84;;;32.50;28.24
53041;BME280;39326;42.650;23.248;2022-07-01T12:02:03;92681.34;;;32.74;26.31
53041;BME280;39326;42.650;23.248;2022-07-01T12:04:30;92681.25;;;32.99;25.76
53041;BME280;39326;42.650;23.248;2022-07-01T12:06:56;92679.38;;;33.07;27.04
53041;BME280;39326;42.650;23.248;2022-07-01T12:09:23;92675.19;;;33.19;28.26
53041;BME280;39326;42.650;23.248;2022-07-01T12:11:51;92671.97;;;33.34;27.00
53041;BME280;39326;42.650;23.248;2022-07-01T12:14:21;92669.44;;;32.98;27.39
53041;BME280;39326;42.650;23.248;2022-07-01T12:16:51;92663.00;;;33.09;27.91
53041;BME280;39326;42.650;23.248;2022-07-01T12:19:16;92669.78;;;33.27;28.30
53041;BME280;39326;42.650;23.248;2022-07-01T12:21:53;92666.72;;;32.79;26.39
53041;BME280;39326;42.650;23.248;2022-07-01T12:24:20;92659.31;;;32.88;27.36
53041;BME280;39326;42.650;23.248;2022-07-01T12:27:09;92670.41;;;33.20;27.80
53041;BME280;39326;42.650;23.248;2022-07-01T12:32:17;92670.53;;;33.08;26.03
53041;BME280;39326;42.650;23.248;2022-07-01T12:37:25;92671.06;;;33.07;26.21
53041;BME280;39326;42.650;23.248;2022-07-01T12:39:55;92666.50;;;32.77;27.08
53041;BME280;39326;42.650;23.248;2022-07-01T12:42:21;92659.88;;;32.43;26.18
53041;BME280;39326;42.650;23.248;2022-07-01T12:44:48;92655.78;;;32.49;25.78
53041;BME280;39326;42.650;23.248;2022-07-01T12:52:38;92652.25;;;33.24;26.05
53041;BME280;39326;42.650;23.248;2022-07-01T12:55:17;92655.84;;;33.19;25.45
53041;BME280;39326;42.650;23.248;2022-07-01T12:57:46;92642.88;;;33.27;24.13
53041;BME280;39326;42.650;23.248;2022-07-01T13:00:13;92652.47;;;33.40;25.39
53041;BME280;39326;42.650;23.248;2022-07-01T13:02:39;92649.72;;;33.72;25.49
53041;BME280;39326;42.650;23.248;2022-07-01T13:05:04;92651.75;;;33.98;26.13
53041;BME280;39326;42.650;23.248;2022-07-01T13:07:30;92649.19;;;34.00;24.64
53041;BME280;39326;42.650;23.248;2022-07-01T13:09:56;92650.03;;;34.08;23.98
53041;BME280;39326;42.650;23.248;2022-07-01T13:12:21;92656.16;;;33.61;24.06
53041;BME280;39326;42.650;23.248;2022-07-01T13:14:47;92646.44;;;33.41;25.43
53041;BME280;39326;42.650;23.248;2022-07-01T13:17:12;92643.84;;;33.30;25.49
53041;BME280;39326;42.650;23.248;2022-07-01T13:19:38;92647.63;;;33.14;26.16
53041;BME280;39326;42.650;23.248;2022-07-01T13:22:04;92644.91;;;33.08;26.44
53041;BME280;39326;42.650;23.248;2022-07-01T13:24:29;92644.19;;;33.40;25.24
53041;BME280;39326;42.650;23.248;2022-07-01T13:26:55;92641.94;;;33.06;24.17